createdAt,value
2022-09-09T00:00:01.647Z,1005.44
2022-09-09T00:01:01.567Z,1005.43
2022-09-09T00:02:01.588Z,1005.44
2022-09-09T00:03:01.615Z,1005.40
2022-09-09T00:04:01.557Z,1005.43
2022-09-09T00:05:01.525Z,1005.38
2022-09-09T00:06:01.535Z,1005.36
2022-09-09T00:07:01.494Z,1005.34
2022-09-09T00:08:01.495Z,1005.28
2022-09-09T00:09:01.481Z,1005.25
2022-09-09T00:10:01.452Z,1005.23
2022-09-09T00:11:01.475Z,1005.26
2022-09-09T00:12:01.447Z,1005.18
2022-09-09T00:13:01.437Z,1005.17
2022-09-09T00:14:01.402Z,1005.25
2022-09-09T00:15:01.394Z,1005.17
2022-09-09T00:16:01.443Z,1005.16
2022-09-09T00:17:01.395Z,1005.15
2022-09-09T00:18:01.368Z,1005.15
2022-09-09T00:19:01.350Z,1005.13
2022-09-09T00:20:01.379Z,1005.12
2022-09-09T00:21:01.346Z,1005.12
2022-09-09T00:22:01.317Z,1005.07
2022-09-09T00:23:01.313Z,1005.06
2022-09-09T00:24:01.284Z,1005.10
2022-09-09T00:25:01.287Z,1005.10
2022-09-09T00:26:01.253Z,1005.11
2022-09-09T00:27:01.266Z,1005.08
2022-09-09T00:28:01.244Z,1005.05
2022-09-09T00:29:01.229Z,1005.05
2022-09-09T00:30:01.201Z,1005.10
2022-09-09T00:31:01.269Z,1005.02
2022-09-09T00:32:01.192Z,1005.08
2022-09-09T00:33:01.189Z,1005.10
2022-09-09T00:34:01.153Z,1005.16
2022-09-09T00:35:01.163Z,1005.10
2022-09-09T00:36:01.138Z,1005.08
2022-09-09T00:37:01.139Z,1005.13
2022-09-09T00:38:01.101Z,1005.14
2022-09-09T00:39:01.096Z,1005.11
2022-09-09T00:40:01.182Z,1005.11
2022-09-09T00:41:01.059Z,1005.09
2022-09-09T00:42:01.091Z,1005.09
2022-09-09T00:43:01.044Z,1005.13
2022-09-09T00:44:01.040Z,1005.16
2022-09-09T00:45:01.012Z,1005.09
2022-09-09T00:46:01.074Z,1005.13
2022-09-09T00:47:01.005Z,1005.14
2022-09-09T00:48:00.979Z,1005.21
2022-09-09T00:49:00.972Z,1005.18
2022-09-09T00:50:01.518Z,1005.18
2022-09-09T00:51:00.999Z,1005.20
2022-09-09T00:52:00.934Z,1005.21
2022-09-09T00:53:00.932Z,1005.22
2022-09-09T00:54:00.917Z,1005.14
2022-09-09T00:55:00.883Z,1005.13
2022-09-09T00:56:00.886Z,1005.11
2022-09-09T00:57:00.851Z,1005.14
2022-09-09T00:58:00.858Z,1005.20
2022-09-09T00:59:00.851Z,1005.15
2022-09-09T01:00:00.812Z,1005.09
2022-09-09T01:01:00.827Z,1005.11
2022-09-09T01:02:00.781Z,1005.12
2022-09-09T01:03:00.804Z,1005.07
2022-09-09T01:04:00.781Z,1005.05
2022-09-09T01:05:00.782Z,1005.12
2022-09-09T01:06:00.775Z,1005.13
2022-09-09T01:07:00.734Z,1005.12
2022-09-09T01:08:00.725Z,1005.13
2022-09-09T01:09:00.700Z,1005.12
2022-09-09T01:10:00.724Z,1005.12
2022-09-09T01:11:00.691Z,1005.14
2022-09-09T01:12:00.660Z,1005.12
2022-09-09T01:13:00.674Z,1005.17
2022-09-09T01:14:01.643Z,1005.11
2022-09-09T01:15:00.655Z,1005.14
2022-09-09T01:16:02.001Z,1005.12
2022-09-09T01:17:00.690Z,1005.12
2022-09-09T01:18:00.585Z,1005.13
2022-09-09T01:19:00.560Z,1005.18
2022-09-09T01:20:00.581Z,1005.11
2022-09-09T01:21:00.551Z,1005.13
2022-09-09T01:22:00.528Z,1005.25
2022-09-09T01:23:00.537Z,1005.22
2022-09-09T01:24:00.501Z,1005.15
2022-09-09T01:25:00.525Z,1005.17
2022-09-09T01:26:00.494Z,1005.14
2022-09-09T01:27:00.469Z,1005.15
2022-09-09T01:28:00.452Z,1005.18
2022-09-09T01:29:00.474Z,1005.13
2022-09-09T01:30:00.445Z,1005.18
2022-09-09T01:31:00.475Z,1005.18
2022-09-09T01:32:00.409Z,1005.13
2022-09-09T01:33:00.412Z,1005.11
2022-09-09T01:34:00.387Z,1005.08
2022-09-09T01:35:00.400Z,1005.13
2022-09-09T01:36:00.361Z,1005.13
2022-09-09T01:37:00.365Z,1005.11
2022-09-09T01:38:00.350Z,1005.13
2022-09-09T01:39:00.331Z,1005.11
2022-09-09T01:40:00.494Z,1005.14
2022-09-09T01:41:00.328Z,1005.10
2022-09-09T01:42:00.276Z,1005.15
2022-09-09T01:43:00.272Z,1005.07
2022-09-09T01:44:00.238Z,1005.08
2022-09-09T01:45:00.249Z,1005.04
2022-09-09T01:46:00.265Z,1005.11
2022-09-09T01:47:00.243Z,1005.06
2022-09-09T01:48:00.198Z,1005.06
2022-09-09T01:49:00.186Z,1005.11
2022-09-09T01:50:00.186Z,1005.08
2022-09-09T01:51:00.171Z,1005.15
2022-09-09T01:52:00.175Z,1005.20
2022-09-09T01:53:07.259Z,1005.17
2022-09-09T01:54:00.131Z,1005.17
2022-09-09T01:55:01.938Z,1005.21
2022-09-09T01:56:00.096Z,1005.17
2022-09-09T01:57:00.118Z,1005.18
2022-09-09T01:58:00.124Z,1005.19
2022-09-09T01:59:00.086Z,1005.17
2022-09-09T02:00:00.055Z,1005.21
2022-09-09T02:01:00.118Z,1005.23
2022-09-09T02:02:00.113Z,1005.28
2022-09-09T02:03:00.021Z,1005.29
2022-09-09T02:04:00.051Z,1005.29
2022-09-09T02:05:00.004Z,1005.22
2022-09-09T02:05:59.981Z,1005.20
2022-09-09T02:06:59.970Z,1005.25
2022-09-09T02:07:59.959Z,1005.28
2022-09-09T02:08:59.989Z,1005.21
2022-09-09T02:09:59.930Z,1005.15
2022-09-09T02:10:59.940Z,1005.27
2022-09-09T02:11:59.909Z,1005.27
2022-09-09T02:12:59.909Z,1005.17
2022-09-09T02:13:59.865Z,1005.27
2022-09-09T02:14:59.908Z,1005.23
2022-09-09T02:15:59.848Z,1005.21
2022-09-09T02:16:59.896Z,1005.26
2022-09-09T02:17:59.837Z,1005.18
2022-09-09T02:18:59.830Z,1005.17
2022-09-09T02:19:59.829Z,1005.18
2022-09-09T02:20:59.799Z,1005.15
2022-09-09T02:21:59.787Z,1005.14
2022-09-09T02:22:59.838Z,1005.15
2022-09-09T02:23:59.736Z,1005.14
2022-09-09T02:24:59.769Z,1005.10
2022-09-09T02:25:59.743Z,1005.07
2022-09-09T02:26:59.719Z,1005.07
2022-09-09T02:27:59.717Z,1005.11
2022-09-09T02:28:59.697Z,1005.13
2022-09-09T02:29:59.677Z,1005.10
2022-09-09T02:30:59.745Z,1005.08
2022-09-09T02:31:59.645Z,1005.13
2022-09-09T02:32:59.657Z,1005.09
2022-09-09T02:33:59.637Z,1005.15
2022-09-09T02:34:59.622Z,1005.13
2022-09-09T02:35:59.595Z,1005.19
2022-09-09T02:36:59.586Z,1005.15
2022-09-09T02:37:59.577Z,1005.15
2022-09-09T02:38:59.569Z,1005.14
2022-09-09T02:39:59.594Z,1005.12
2022-09-09T02:40:59.536Z,1005.11
2022-09-09T02:41:59.515Z,1005.13
2022-09-09T02:42:59.514Z,1005.15
2022-09-09T02:43:59.515Z,1005.12
2022-09-09T02:44:59.483Z,1005.15
2022-09-09T02:45:59.572Z,1005.15
2022-09-09T02:46:59.447Z,1005.04
2022-09-09T02:47:59.456Z,1005.07
2022-09-09T02:48:59.413Z,1005.10
2022-09-09T02:49:59.425Z,1005.08
2022-09-09T02:50:59.384Z,1005.05
2022-09-09T02:51:59.383Z,1005.04
2022-09-09T02:52:59.396Z,1005.10
2022-09-09T02:53:59.355Z,1005.04
2022-09-09T02:54:59.368Z,1005.07
2022-09-09T02:55:59.361Z,1005.08
2022-09-09T02:56:59.313Z,1005.10
2022-09-09T02:57:59.327Z,1005.08
2022-09-09T02:58:59.286Z,1005.06
2022-09-09T02:59:59.325Z,1005.06
2022-09-09T03:00:59.321Z,1005.05
2022-09-09T03:01:59.333Z,1005.02
2022-09-09T03:02:59.273Z,1005.01
2022-09-09T03:03:59.247Z,1005.08
2022-09-09T03:04:59.245Z,1005.03
2022-09-09T03:05:59.219Z,1005.04
2022-09-09T03:06:59.200Z,1005.01
2022-09-09T03:07:59.193Z,1005.07
2022-09-09T03:08:59.194Z,1004.99
2022-09-09T03:09:59.193Z,1004.93
2022-09-09T03:10:59.170Z,1004.96
2022-09-09T03:11:59.143Z,1004.98
2022-09-09T03:12:59.104Z,1005.02
2022-09-09T03:13:59.104Z,1005.00
2022-09-09T03:14:59.091Z,1004.98
2022-09-09T03:15:59.116Z,1004.97
2022-09-09T03:16:59.163Z,1005.02
2022-09-09T03:17:59.055Z,1004.97
2022-09-09T03:18:59.034Z,1004.96
2022-09-09T03:19:59.045Z,1004.95
2022-09-09T03:20:59.025Z,1004.94
2022-09-09T03:21:59.021Z,1004.93
2022-09-09T03:22:59.008Z,1005.01
2022-09-09T03:23:58.986Z,1004.93
2022-09-09T03:24:58.952Z,1004.99
2022-09-09T03:25:58.964Z,1004.92
2022-09-09T03:26:58.969Z,1004.93
2022-09-09T03:27:58.921Z,1004.95
2022-09-09T03:28:58.908Z,1004.95
2022-09-09T03:29:58.909Z,1004.90
2022-09-09T03:30:58.919Z,1004.87
2022-09-09T03:31:58.954Z,1004.86
2022-09-09T03:32:58.883Z,1004.89
2022-09-09T03:33:58.866Z,1004.89
2022-09-09T03:34:58.831Z,1004.88
2022-09-09T03:35:58.813Z,1004.90
2022-09-09T03:36:58.814Z,1004.91
2022-09-09T03:37:58.821Z,1004.92
2022-09-09T03:38:58.782Z,1004.89
2022-09-09T03:39:58.866Z,1004.97
2022-09-09T03:40:58.777Z,1004.96
2022-09-09T03:41:58.755Z,1004.93
2022-09-09T03:42:58.755Z,1004.91
2022-09-09T03:43:58.746Z,1004.92
2022-09-09T03:44:58.705Z,1004.93
2022-09-09T03:45:58.836Z,1004.94
2022-09-09T03:46:58.701Z,1004.97
2022-09-09T03:47:58.682Z,1004.94
2022-09-09T03:48:58.676Z,1004.89
2022-09-09T03:49:58.650Z,1004.96
2022-09-09T03:50:58.632Z,1004.92
2022-09-09T03:51:58.625Z,1004.89
2022-09-09T03:52:58.621Z,1004.90
2022-09-09T03:53:58.613Z,1004.94
2022-09-09T03:54:58.582Z,1004.89
2022-09-09T03:55:58.572Z,1004.94
2022-09-09T03:56:58.563Z,1004.97
2022-09-09T03:57:58.543Z,1004.95
2022-09-09T03:58:58.553Z,1004.96
2022-09-09T03:59:58.526Z,1004.97
2022-09-09T04:00:58.560Z,1004.94
2022-09-09T04:01:58.528Z,1004.97
2022-09-09T04:02:58.470Z,1004.98
2022-09-09T04:03:58.481Z,1004.96
2022-09-09T04:04:58.453Z,1005.02
2022-09-09T04:05:58.453Z,1004.97
2022-09-09T04:06:58.432Z,1004.94
2022-09-09T04:07:58.431Z,1004.97
2022-09-09T04:08:58.415Z,1005.00
2022-09-09T04:09:58.388Z,1004.99
2022-09-09T04:10:58.379Z,1005.01
2022-09-09T04:11:58.383Z,1004.99
2022-09-09T04:12:58.373Z,1004.99
2022-09-09T04:13:58.359Z,1004.92
2022-09-09T04:14:58.341Z,1004.93
2022-09-09T04:15:58.312Z,1004.99
2022-09-09T04:16:58.314Z,1004.95
2022-09-09T04:17:58.294Z,1004.97
2022-09-09T04:18:58.765Z,1004.99
2022-09-09T04:19:58.259Z,1004.94
2022-09-09T04:20:58.268Z,1004.97
2022-09-09T04:21:58.268Z,1004.97
2022-09-09T04:22:58.243Z,1004.95
2022-09-09T04:23:58.231Z,1004.94
2022-09-09T04:24:58.211Z,1004.95
2022-09-09T04:25:58.180Z,1004.91
2022-09-09T04:26:58.161Z,1004.89
2022-09-09T04:27:58.163Z,1004.94
2022-09-09T04:28:58.162Z,1004.88
2022-09-09T04:29:58.142Z,1004.90
2022-09-09T04:30:58.120Z,1004.89
2022-09-09T04:31:58.156Z,1004.91
2022-09-09T04:32:58.096Z,1004.92
2022-09-09T04:33:58.115Z,1004.96
2022-09-09T04:34:58.074Z,1004.96
2022-09-09T04:35:58.056Z,1005.01
2022-09-09T04:36:58.051Z,1004.97
2022-09-09T04:37:58.051Z,1004.97
2022-09-09T04:38:58.037Z,1004.96
2022-09-09T04:39:58.058Z,1004.99
2022-09-09T04:40:58.001Z,1004.96
2022-09-09T04:41:57.988Z,1005.00
2022-09-09T04:42:57.969Z,1005.03
2022-09-09T04:43:57.959Z,1005.02
2022-09-09T04:44:57.951Z,1005.00
2022-09-09T04:45:58.021Z,1005.03
2022-09-09T04:46:57.929Z,1005.04
2022-09-09T04:47:57.898Z,1005.08
2022-09-09T04:48:57.919Z,1005.11
2022-09-09T04:49:57.880Z,1005.05
2022-09-09T04:50:57.866Z,1005.04
2022-09-09T04:51:57.860Z,1005.13
2022-09-09T04:52:57.850Z,1005.13
2022-09-09T04:53:57.860Z,1005.08
2022-09-09T04:54:57.810Z,1005.11
2022-09-09T04:55:57.811Z,1005.06
2022-09-09T04:56:57.809Z,1004.96
2022-09-09T04:57:57.776Z,1005.03
2022-09-09T04:58:57.778Z,1005.05
2022-09-09T04:59:57.757Z,1005.02
2022-09-09T05:00:57.814Z,1005.04
2022-09-09T05:01:57.840Z,1005.06
2022-09-09T05:02:57.721Z,1005.01
2022-09-09T05:03:57.728Z,1005.00
2022-09-09T05:04:57.687Z,1005.01
2022-09-09T05:05:57.678Z,1005.04
2022-09-09T05:06:57.656Z,1004.98
2022-09-09T05:07:57.668Z,1004.96
2022-09-09T05:08:57.652Z,1004.99
2022-09-09T05:09:57.629Z,1005.01
2022-09-09T05:10:57.625Z,1004.92
2022-09-09T05:11:57.598Z,1004.99
2022-09-09T05:12:57.585Z,1005.02
2022-09-09T05:13:57.602Z,1005.02
2022-09-09T05:14:57.556Z,1005.04
2022-09-09T05:15:57.656Z,1005.02
2022-09-09T05:16:57.536Z,1005.04
2022-09-09T05:17:57.568Z,1005.07
2022-09-09T05:18:57.527Z,1004.98
2022-09-09T05:19:57.496Z,1005.00
2022-09-09T05:20:57.501Z,1005.04
2022-09-09T05:21:57.475Z,1004.97
2022-09-09T05:22:57.493Z,1004.96
2022-09-09T05:23:57.465Z,1004.99
2022-09-09T05:24:57.434Z,1004.95
2022-09-09T05:25:57.425Z,1004.93
2022-09-09T05:26:57.410Z,1004.88
2022-09-09T05:27:57.404Z,1004.92
2022-09-09T05:28:57.397Z,1004.91
2022-09-09T05:29:57.377Z,1004.91
2022-09-09T05:30:57.354Z,1004.94
2022-09-09T05:31:57.395Z,1004.93
2022-09-09T05:32:57.338Z,1004.92
2022-09-09T05:33:57.346Z,1004.95
2022-09-09T05:34:57.303Z,1004.93
2022-09-09T05:35:57.294Z,1004.94
2022-09-09T05:36:57.294Z,1004.93
2022-09-09T05:37:57.277Z,1004.93
2022-09-09T05:38:57.285Z,1004.96
2022-09-09T05:39:57.311Z,1004.93
2022-09-09T05:40:57.230Z,1004.95
2022-09-09T05:41:57.237Z,1004.94
2022-09-09T05:42:57.195Z,1004.97
2022-09-09T05:43:57.216Z,1005.00
2022-09-09T05:44:57.188Z,1005.01
2022-09-09T05:45:57.176Z,1005.01
2022-09-09T05:46:57.275Z,1004.98
2022-09-09T05:47:57.140Z,1005.03
2022-09-09T05:48:57.143Z,1005.05
2022-09-09T05:49:57.129Z,1005.11
2022-09-09T05:50:57.115Z,1005.14
2022-09-09T05:51:57.116Z,1005.15
2022-09-09T05:52:57.085Z,1005.12
2022-09-09T05:53:57.098Z,1005.05
2022-09-09T05:54:57.043Z,1005.13
2022-09-09T05:55:57.054Z,1005.11
2022-09-09T05:56:57.088Z,1005.15
2022-09-09T05:57:57.014Z,1005.13
2022-09-09T05:58:57.031Z,1005.13
2022-09-09T05:59:56.992Z,1005.14
2022-09-09T06:00:56.963Z,1005.11
2022-09-09T06:01:57.109Z,1005.16
2022-09-09T06:02:57.038Z,1005.12
2022-09-09T06:03:56.953Z,1005.09
2022-09-09T06:05:00.439Z,1005.04
2022-09-09T06:05:56.901Z,1005.10
2022-09-09T06:06:56.901Z,1005.18
2022-09-09T06:07:56.896Z,1005.16
2022-09-09T06:08:56.896Z,1005.08
2022-09-09T06:09:56.864Z,1005.04
2022-09-09T06:10:56.838Z,1005.17
2022-09-09T06:11:56.831Z,1005.14
2022-09-09T06:12:56.823Z,1005.05
2022-09-09T06:13:56.839Z,1005.08
2022-09-09T06:14:56.803Z,1005.04
2022-09-09T06:15:56.814Z,1005.17
2022-09-09T06:16:56.769Z,1005.10
2022-09-09T06:17:56.764Z,1005.08
2022-09-09T06:18:56.740Z,1005.06
2022-09-09T06:19:56.754Z,1005.11
2022-09-09T06:20:56.719Z,1005.19
2022-09-09T06:21:56.711Z,1005.05
2022-09-09T06:22:56.681Z,1005.07
2022-09-09T06:24:00.718Z,1005.11
2022-09-09T06:24:56.680Z,1005.05
2022-09-09T06:25:56.651Z,1005.06
2022-09-09T06:26:56.642Z,1005.08
2022-09-09T06:27:56.644Z,1005.08
2022-09-09T06:28:56.610Z,1005.14
2022-09-09T06:29:56.595Z,1005.20
2022-09-09T06:30:56.610Z,1005.22
2022-09-09T06:31:56.675Z,1005.14
2022-09-09T06:32:56.550Z,1005.17
2022-09-09T06:33:56.580Z,1005.16
2022-09-09T06:34:56.543Z,1005.21
2022-09-09T06:35:56.572Z,1005.17
2022-09-09T06:36:56.514Z,1005.18
2022-09-09T06:37:56.499Z,1005.14
2022-09-09T06:38:56.478Z,1005.13
2022-09-09T06:39:56.572Z,1005.12
2022-09-09T06:40:56.474Z,1005.16
2022-09-09T06:41:56.463Z,1005.11
2022-09-09T06:42:56.436Z,1005.08
2022-09-09T06:43:56.417Z,1005.14
2022-09-09T06:44:56.420Z,1005.09
2022-09-09T06:45:56.387Z,1005.19
2022-09-09T06:46:56.418Z,1005.11
2022-09-09T06:47:56.380Z,1005.18
2022-09-09T06:48:56.339Z,1005.16
2022-09-09T06:49:56.341Z,1005.06
2022-09-09T06:50:56.332Z,1005.09
2022-09-09T06:51:56.335Z,1005.11
2022-09-09T06:52:56.311Z,1005.08
2022-09-09T06:53:56.299Z,1005.12
2022-09-09T06:54:56.289Z,1005.15
2022-09-09T06:55:56.301Z,1005.10
2022-09-09T06:56:56.271Z,1005.11
2022-09-09T06:57:56.238Z,1005.02
2022-09-09T06:58:56.220Z,1005.06
2022-09-09T06:59:56.220Z,1005.07
2022-09-09T07:00:56.241Z,1005.05
2022-09-09T07:01:56.604Z,1005.03
2022-09-09T07:02:56.199Z,1005.06
2022-09-09T07:03:56.166Z,1005.11
2022-09-09T07:04:56.162Z,1005.08
2022-09-09T07:05:56.128Z,1005.08
2022-09-09T07:06:56.128Z,1005.03
2022-09-09T07:07:56.106Z,1005.01
2022-09-09T07:08:56.929Z,1005.03
2022-09-09T07:09:56.103Z,1004.98
2022-09-09T07:10:56.076Z,1005.00
2022-09-09T07:11:56.076Z,1005.08
2022-09-09T07:12:56.042Z,1005.05
2022-09-09T07:13:56.043Z,1004.97
2022-09-09T07:14:56.017Z,1005.00
2022-09-09T07:15:56.061Z,1004.98
2022-09-09T07:16:59.461Z,1004.99
2022-09-09T07:17:55.986Z,1005.04
2022-09-09T07:18:55.988Z,1005.04
2022-09-09T07:19:55.956Z,1005.07
2022-09-09T07:20:55.963Z,1005.06
2022-09-09T07:21:55.951Z,1005.10
2022-09-09T07:22:55.916Z,1005.11
2022-09-09T07:23:55.928Z,1005.10
2022-09-09T07:24:55.910Z,1005.12
2022-09-09T07:25:55.878Z,1005.11
2022-09-09T07:26:55.881Z,1005.15
2022-09-09T07:27:55.857Z,1005.07
2022-09-09T07:28:55.867Z,1005.17
2022-09-09T07:29:55.835Z,1005.16
2022-09-09T07:30:55.873Z,1005.16
2022-09-09T07:31:55.808Z,1005.24
2022-09-09T07:32:55.808Z,1005.24
2022-09-09T07:33:55.800Z,1005.16
2022-09-09T07:34:55.765Z,1005.29
2022-09-09T07:35:55.746Z,1005.35
2022-09-09T07:36:55.758Z,1005.31
2022-09-09T07:37:55.726Z,1005.30
2022-09-09T07:38:55.735Z,1005.29
2022-09-09T07:39:55.742Z,1005.36
2022-09-09T07:40:55.685Z,1005.28
2022-09-09T07:41:55.699Z,1005.35
2022-09-09T07:42:55.655Z,1005.37
2022-09-09T07:43:55.654Z,1005.36
2022-09-09T07:44:55.645Z,1005.33
2022-09-09T07:45:55.624Z,1005.35
2022-09-09T07:46:55.677Z,1005.30
2022-09-09T07:47:55.592Z,1005.38
2022-09-09T07:48:55.610Z,1005.38
2022-09-09T07:49:55.589Z,1005.35
2022-09-09T07:50:55.617Z,1005.35
2022-09-09T07:51:55.574Z,1005.37
2022-09-09T07:52:57.591Z,1005.39
2022-09-09T07:53:55.533Z,1005.36
2022-09-09T07:54:55.519Z,1005.33
2022-09-09T07:55:55.495Z,1005.41
2022-09-09T07:56:55.484Z,1005.39
2022-09-09T07:57:55.477Z,1005.38
2022-09-09T07:58:55.478Z,1005.35
2022-09-09T07:59:55.459Z,1005.42
2022-09-09T08:00:55.463Z,1005.42
2022-09-09T08:01:55.880Z,1005.40
2022-09-09T08:02:55.448Z,1005.42
2022-09-09T08:03:56.658Z,1005.44
2022-09-09T08:04:55.373Z,1005.45
2022-09-09T08:05:55.374Z,1005.42
2022-09-09T08:06:55.352Z,1005.37
2022-09-09T08:07:55.353Z,1005.41
2022-09-09T08:08:55.367Z,1005.43
2022-09-09T08:09:55.304Z,1005.44
2022-09-09T08:10:56.047Z,1005.43
2022-09-09T08:11:55.296Z,1005.41
2022-09-09T08:13:16.880Z,1005.44
2022-09-09T08:14:01.667Z,1005.48
2022-09-09T08:14:56.264Z,1005.42
2022-09-09T08:15:56.852Z,1005.44
2022-09-09T08:16:55.481Z,1005.43
2022-09-09T08:17:55.241Z,1005.40
2022-09-09T08:18:55.226Z,1005.42
2022-09-09T08:19:55.213Z,1005.41
2022-09-09T08:20:55.173Z,1005.38
2022-09-09T08:21:55.186Z,1005.41
2022-09-09T08:22:55.149Z,1005.44
2022-09-09T08:23:57.997Z,1005.47
2022-09-09T08:24:55.136Z,1005.50
2022-09-09T08:25:55.115Z,1005.38
2022-09-09T08:26:55.112Z,1005.45
2022-09-09T08:27:55.109Z,1005.38
2022-09-09T08:28:55.098Z,1005.35
2022-09-09T08:29:55.084Z,1005.35
2022-09-09T08:30:55.077Z,1005.40
2022-09-09T08:31:55.030Z,1005.39
2022-09-09T08:32:55.036Z,1005.44
2022-09-09T08:33:55.033Z,1005.40
2022-09-09T08:34:55.032Z,1005.40
2022-09-09T08:35:55.972Z,1005.40
2022-09-09T08:36:54.985Z,1005.39
2022-09-09T08:37:54.973Z,1005.39
2022-09-09T08:38:54.964Z,1005.42
2022-09-09T08:39:54.987Z,1005.40
2022-09-09T08:40:54.920Z,1005.41
2022-09-09T08:41:54.925Z,1005.38
2022-09-09T08:42:54.905Z,1005.40
2022-09-09T08:43:54.919Z,1005.43
2022-09-09T08:44:54.886Z,1005.41
2022-09-09T08:45:54.860Z,1005.43
2022-09-09T08:46:54.853Z,1005.50
2022-09-09T08:47:54.852Z,1005.45
2022-09-09T08:48:54.811Z,1005.45
2022-09-09T08:49:54.831Z,1005.52
2022-09-09T08:50:54.800Z,1005.54
2022-09-09T08:51:54.780Z,1005.48
2022-09-09T08:52:54.790Z,1005.48
2022-09-09T08:53:59.151Z,1005.48
2022-09-09T08:54:55.737Z,1005.56
2022-09-09T08:55:54.759Z,1005.49
2022-09-09T08:56:54.711Z,1005.53
2022-09-09T08:57:54.691Z,1005.55
2022-09-09T08:58:54.701Z,1005.52
2022-09-09T08:59:54.668Z,1005.45
2022-09-09T09:00:54.666Z,1005.59
2022-09-09T09:01:54.676Z,1005.54
2022-09-09T09:02:54.629Z,1005.56
2022-09-09T09:03:54.658Z,1005.55
2022-09-09T09:04:54.691Z,1005.54
2022-09-09T09:05:54.602Z,1005.60
2022-09-09T09:06:54.594Z,1005.54
2022-09-09T09:07:54.573Z,1005.55
2022-09-09T09:08:54.549Z,1005.64
2022-09-09T09:09:54.573Z,1005.54
2022-09-09T09:10:54.545Z,1005.53
2022-09-09T09:11:54.522Z,1005.58
2022-09-09T09:12:54.532Z,1005.61
2022-09-09T09:13:54.494Z,1005.64
2022-09-09T09:14:54.482Z,1005.65
2022-09-09T09:15:54.588Z,1005.64
2022-09-09T09:16:54.460Z,1005.59
2022-09-09T09:17:54.448Z,1005.68
2022-09-09T09:18:54.464Z,1005.56
2022-09-09T09:19:54.443Z,1005.68
2022-09-09T09:20:54.413Z,1005.60
2022-09-09T09:21:54.391Z,1005.67
2022-09-09T09:22:54.368Z,1005.63
2022-09-09T09:23:54.359Z,1005.66
2022-09-09T09:24:54.358Z,1005.72
2022-09-09T09:25:54.337Z,1005.66
2022-09-09T09:26:54.341Z,1005.64
2022-09-09T09:27:54.315Z,1005.65
2022-09-09T09:28:54.299Z,1005.59
2022-09-09T09:30:21.206Z,1005.69
2022-09-09T09:30:55.318Z,1005.59
2022-09-09T09:31:54.274Z,1005.63
2022-09-09T09:32:54.262Z,1005.61
2022-09-09T09:33:54.265Z,1005.61
2022-09-09T09:34:54.218Z,1005.65
2022-09-09T09:35:54.249Z,1005.61
2022-09-09T09:36:54.198Z,1005.64
2022-09-09T09:40:55.179Z,1005.61
2022-09-09T09:41:54.165Z,1005.62
2022-09-09T09:42:54.118Z,1005.64
2022-09-09T09:43:54.120Z,1005.64
2022-09-09T09:44:54.118Z,1005.62
2022-09-09T09:46:14.240Z,1005.69
2022-09-09T09:46:55.146Z,1005.68
2022-09-09T09:47:58.042Z,1005.65
2022-09-09T09:48:55.037Z,1005.69
2022-09-09T09:49:54.039Z,1005.64
2022-09-09T09:50:54.012Z,1005.63
2022-09-09T09:51:54.033Z,1005.68
2022-09-09T09:52:53.990Z,1005.74
2022-09-09T09:53:53.982Z,1005.67
2022-09-09T09:54:53.969Z,1005.73
2022-09-09T09:55:53.971Z,1005.72
2022-09-09T09:56:54.045Z,1005.70
2022-09-09T09:57:54.039Z,1005.68
2022-09-09T09:58:53.934Z,1005.75
2022-09-09T09:59:53.909Z,1005.75
2022-09-09T10:00:53.904Z,1005.77
2022-09-09T10:01:53.962Z,1005.71
2022-09-09T10:02:53.865Z,1005.74
2022-09-09T10:03:53.850Z,1005.65
2022-09-09T10:04:53.882Z,1005.70
2022-09-09T10:05:53.840Z,1005.68
2022-09-09T10:06:53.837Z,1005.70
2022-09-09T10:07:53.808Z,1005.67
2022-09-09T10:08:53.800Z,1005.64
2022-09-09T10:09:53.789Z,1005.70
2022-09-09T10:10:53.756Z,1005.59
2022-09-09T10:11:53.747Z,1005.61
2022-09-09T10:12:53.749Z,1005.57
2022-09-09T10:13:53.732Z,1005.55
2022-09-09T10:14:53.720Z,1005.54
2022-09-09T10:15:53.750Z,1005.55
2022-09-09T10:16:53.678Z,1005.54
2022-09-09T10:17:53.703Z,1005.56
2022-09-09T10:18:53.690Z,1005.51
2022-09-09T10:19:53.636Z,1005.55
2022-09-09T10:20:53.639Z,1005.53
2022-09-09T10:21:53.633Z,1005.55
2022-09-09T10:22:53.647Z,1005.54
2022-09-09T10:23:53.623Z,1005.54
2022-09-09T10:24:53.586Z,1005.48
2022-09-09T10:25:53.566Z,1005.52
2022-09-09T10:26:53.584Z,1005.54
2022-09-09T10:27:58.303Z,1005.49
2022-09-09T10:28:54.562Z,1005.53
2022-09-09T10:29:53.547Z,1005.55
2022-09-09T10:30:53.591Z,1005.53
2022-09-09T10:31:53.501Z,1005.51
2022-09-09T10:32:53.488Z,1005.52
2022-09-09T10:33:53.498Z,1005.48
2022-09-09T10:34:53.474Z,1005.50
2022-09-09T10:35:53.449Z,1005.47
2022-09-09T10:36:53.436Z,1005.44
2022-09-09T10:37:53.449Z,1005.43
2022-09-09T10:38:53.399Z,1005.43
2022-09-09T10:39:53.425Z,1005.46
2022-09-09T10:40:53.389Z,1005.39
2022-09-09T10:41:53.359Z,1005.43
2022-09-09T10:42:53.353Z,1005.45
2022-09-09T10:43:56.352Z,1005.46
2022-09-09T10:44:54.328Z,1005.38
2022-09-09T10:45:53.386Z,1005.44
2022-09-09T10:46:53.295Z,1005.36
2022-09-09T10:47:53.305Z,1005.43
2022-09-09T10:48:53.290Z,1005.37
2022-09-09T10:49:53.267Z,1005.36
2022-09-09T10:51:03.924Z,1005.45
2022-09-09T10:51:54.239Z,1005.51
2022-09-09T10:52:53.243Z,1005.37
2022-09-09T10:53:53.204Z,1005.43
2022-09-09T10:54:53.205Z,1005.42
2022-09-09T10:55:53.220Z,1005.41
2022-09-09T10:56:53.175Z,1005.41
2022-09-09T10:57:53.162Z,1005.36
2022-09-09T10:58:53.126Z,1005.40
2022-09-09T10:59:53.126Z,1005.40
2022-09-09T11:00:57.919Z,1005.39
2022-09-09T11:01:54.161Z,1005.29
2022-09-09T11:02:53.083Z,1005.35
2022-09-09T11:03:53.076Z,1005.28
2022-09-09T11:04:53.078Z,1005.29
2022-09-09T11:05:53.062Z,1005.27
2022-09-09T11:06:53.054Z,1005.30
2022-09-09T11:07:53.019Z,1005.22
2022-09-09T11:08:56.468Z,1005.30
2022-09-09T11:09:52.994Z,1005.24
2022-09-09T11:10:52.973Z,1005.27
2022-09-09T11:11:53.013Z,1005.29
2022-09-09T11:12:52.962Z,1005.28
2022-09-09T11:13:52.958Z,1005.25
2022-09-09T11:14:52.951Z,1005.23
2022-09-09T11:15:52.923Z,1005.24
2022-09-09T11:16:52.960Z,1005.30
2022-09-09T11:17:52.880Z,1005.24
2022-09-09T11:18:52.942Z,1005.26
2022-09-09T11:19:52.880Z,1005.24
2022-09-09T11:20:52.850Z,1005.32
2022-09-09T11:21:52.875Z,1005.34
2022-09-09T11:22:53.010Z,1005.28
2022-09-09T11:23:52.835Z,1005.36
2022-09-09T11:24:52.821Z,1005.24
2022-09-09T11:25:52.795Z,1005.26
2022-09-09T11:26:52.787Z,1005.34
2022-09-09T11:27:52.793Z,1005.32
2022-09-09T11:28:52.778Z,1005.29
2022-09-09T11:29:52.746Z,1005.35
2022-09-09T11:30:56.526Z,1005.29
2022-09-09T11:31:52.734Z,1005.31
2022-09-09T11:32:52.735Z,1005.30
2022-09-09T11:33:52.695Z,1005.29
2022-09-09T11:34:52.666Z,1005.24
2022-09-09T11:36:01.213Z,1005.28
2022-09-09T11:36:52.643Z,1005.25
2022-09-09T11:37:52.631Z,1005.29
2022-09-09T11:38:52.668Z,1005.22
2022-09-09T11:39:52.680Z,1005.25
2022-09-09T11:40:52.584Z,1005.20
2022-09-09T11:41:52.611Z,1005.24
2022-09-09T11:42:52.559Z,1005.23
2022-09-09T11:43:52.566Z,1005.26
2022-09-09T11:44:52.561Z,1005.21
2022-09-09T11:45:54.339Z,1005.22
2022-09-09T11:46:52.525Z,1005.26
2022-09-09T11:47:52.516Z,1005.29
2022-09-09T11:48:52.481Z,1005.28
2022-09-09T11:49:52.527Z,1005.25
2022-09-09T11:50:52.494Z,1005.30
2022-09-09T11:51:52.465Z,1005.26
2022-09-09T11:52:52.454Z,1005.19
2022-09-09T11:53:52.431Z,1005.25
2022-09-09T11:54:52.428Z,1005.27
2022-09-09T11:55:52.434Z,1005.25
2022-09-09T11:56:52.405Z,1005.26
2022-09-09T11:57:52.372Z,1005.24
2022-09-09T11:58:52.366Z,1005.28
2022-09-09T11:59:52.356Z,1005.29
2022-09-09T12:00:52.341Z,1005.24
2022-09-09T12:01:52.321Z,1005.19
2022-09-09T12:02:52.309Z,1005.17
2022-09-09T12:03:52.575Z,1005.24
2022-09-09T12:04:52.374Z,1005.27
2022-09-09T12:05:52.312Z,1005.27
2022-09-09T12:06:52.260Z,1005.23
2022-09-09T12:07:52.254Z,1005.27